Ashford, Connecticut
Current Conditions -  °F | °C
As of 3:52 PM on Wednesday 26 Nov 2014 (Local Time) from KIJD Reporting Station
Moderate Rain Moderate Rain  
Wind Chill: -2°   Ceiling: 1300
Heat Index:   Visibility: 4mi
Dew Point:   Wind: 10mph
Humidity: 86%   Direction: 30°NNE
Pressure: 29.91"   Gusts: NA
Location:  41.87°N, 72.12°W
Report Text: KIJD 262052Z AUTO 03009KT 4SM RA BR BKN013 OVC070 02/00 A2991 RMK AO2 SLP130 P0009 60030 T00220000 58040
Loading
Personal Weather Stations






























Interactive Weather Map New forecast layout! Learn more

10-Day Weather Forecast

Advertisements
Track Severe Weather on mobile